Aeroporto :
LOGIN :

Iscrizione | Disclaimer

   EN    FR    IT 

 










Sommario :    VFR   VFR Marginale   IFR   IFR Intensivo   IFR Molto Intensivo
Visibilità : 
Base nubi : 
>= 8 km
>= 3000ft
5 / 8 km
1000 / 3000 ft
1500m / 5 km
500 / 1000 ft
800 / 1500m
200 / 500 ft
< 800m
< 200 ft
Simboli :   Temporali  Nebbia  Neve Forte  Precipitazioni Forti  Vento > 20 kt
SIGMETs :   Varie  Temporali  Ghiacco  Turbolenza  Onda orograficha  Ceneri Vulcaniche






- Altitudine del aeroporto : 386 ft
- Codice IATA : QOE


ETNN - Nörvenich Airforce Base

ULTIMO METAR :
  • 062120Z 28006KT 9999 SCT060 14/08 Q1021 BLU+

METARs OBSOLETI :
  • 062020Z 30007KT 9999 FEW040 BKN060 15/08 Q1021 BLU
  • 061920Z 31007KT 9999 FEW040 BKN060 16/08 Q1021 BLU

TAF AMD TAF ETNN
Valido dal 06 a 14 ore il 06 a 23 ore UTC


061405Z 0614/0623 29015G25KT 9999 NSW SCT040 SCT080
TEMPO 0614/0617 30020G33KT 4000 SHRA SCT012 BKN020CB
BECMG 0619/0621 28007KT 9999 NSW FEW030 BY ETGL



MetMap, La meteo Aeronautica in un colpo d'occhio ! - Copyright ORBIFLY Dicembre 2007 - Disclaimer

ORBIFLY MET'MAP TEAM :

Programmazione e sviluppo : Alexandra Zaïnal
Concezione : Baudouin d'Aumeries
Aiuto per la programmazione : Marc-Olivier Méhu
Supporto tecnico e logistico : Manuel Goepfert
Aiuto per la traduzione : Arnaldo La Scala

Contatto : metmap@orbifly.com




FONTI E CREDITI :

   NOAA